Time;durP1;ratioP1;P1;durP2;ratioP2;P2;SDS_P1;SDS_P2;PMS_P1;PMS_P2;Temp;Humidity;BMP_temperature;BMP_pressure;BME280_temperature;BME280_humidity;BME280_pressure;Samples;Min_cycle;Max_cycle;Signal;HPM_P1;HPM_P2
2022/01/10 00:01:43;;;;;;;14.27;6.80;;;;;;;2.12;80.93;99014.03;5051248;28;20036;-79
2022/01/10 00:04:09;;;;;;;10.13;4.15;;;;;;;2.13;81.67;99030.47;5051942;28;20502;-79
2022/01/10 00:06:35;;;;;;;14.45;5.38;;;;;;;2.12;81.45;99028.78;5047189;28;20030;-82
2022/01/10 00:09:01;;;;;;;15.63;4.68;;;;;;;2.10;81.65;99033.16;5048654;28;20128;-81
2022/01/10 00:11:26;;;;;;;11.07;5.28;;;;;;;2.10;81.10;99043.56;5060090;28;20049;-81
2022/01/10 00:13:52;;;;;;;13.00;6.28;;;;;;;2.08;81.05;99048.78;5067097;28;20033;-78
2022/01/10 00:16:17;;;;;;;16.45;5.03;;;;;;;2.07;81.46;99048.84;5048748;28;20063;-78
2022/01/10 00:18:42;;;;;;;12.48;4.35;;;;;;;2.03;81.60;99050.66;5055557;28;20047;-79
2022/01/10 00:21:08;;;;;;;16.25;6.88;;;;;;;2.02;81.48;99051.56;5036832;28;20037;-78
2022/01/10 00:23:34;;;;;;;17.52;5.05;;;;;;;2.00;81.59;99055.09;5041395;28;20025;-80
2022/01/10 00:26:01;;;;;;;11.85;4.72;;;;;;;1.97;81.33;99061.25;5037679;28;20040;-78
2022/01/10 00:28:26;;;;;;;9.90;3.35;;;;;;;1.88;81.75;99054.50;5041919;28;20166;-77
2022/01/10 00:30:52;;;;;;;10.88;4.70;;;;;;;1.90;81.95;99062.28;5061387;28;20061;-78
2022/01/10 00:33:17;;;;;;;14.52;5.82;;;;;;;1.91;81.90;99062.22;5052680;28;20040;-79
2022/01/10 00:35:42;;;;;;;16.42;5.55;;;;;;;1.88;82.10;99056.28;5047041;28;20100;-79
2022/01/10 00:38:08;;;;;;;13.25;5.18;;;;;;;1.85;82.20;99061.56;5061502;28;20036;-78
2022/01/10 00:40:33;;;;;;;19.73;4.93;;;;;;;1.84;82.65;99065.88;5084555;28;20032;-76
2022/01/10 00:42:59;;;;;;;9.98;5.03;;;;;;;1.83;82.17;99078.91;5071616;28;20048;-76
2022/01/10 00:45:27;;;;;;;14.25;5.03;;;;;;;1.81;82.19;99080.69;5063104;28;20045;-79
2022/01/10 00:47:58;;;;;;;10.48;4.03;;;;;;;1.79;82.16;99078.13;5055005;28;20041;-77
2022/01/10 00:50:27;;;;;;;10.40;5.30;;;;;;;1.77;82.41;99082.50;5055415;28;20045;-78
2022/01/10 00:52:54;;;;;;;10.95;4.30;;;;;;;1.73;82.28;99082.66;5047561;28;20045;-77
2022/01/10 00:55:20;;;;;;;13.73;5.70;;;;;;;1.73;82.81;99093.03;5045432;28;20325;-79
2022/01/10 00:57:45;;;;;;;8.77;4.28;;;;;;;1.73;82.41;99095.63;5038488;28;20039;-76
2022/01/10 01:00:13;;;;;;;9.52;4.55;;;;;;;1.73;82.48;99096.50;5069795;28;20061;-78
2022/01/10 01:02:39;;;;;;;10.05;3.88;;;;;;;1.73;82.40;99099.09;5068800;28;20029;-78
2022/01/10 01:05:08;;;;;;;11.77;6.18;;;;;;;1.71;82.42;99093.06;5068741;28;20037;-77
2022/01/10 01:07:34;;;;;;;12.35;4.72;;;;;;;1.67;82.39;99099.22;5072581;28;20033;-77
2022/01/10 01:10:48;;;;;;;9.88;4.10;;;;;;;1.65;82.65;99095.81;5073330;28;20035;-77
2022/01/10 01:12:57;;;;;;;9.73;4.60;;;;;;;1.66;82.64;99102.72;5064181;28;20048;-78
2022/01/10 01:15:26;;;;;;;11.35;4.15;;;;;;;1.66;82.63;99102.72;5060247;28;20037;-77
2022/01/10 01:25:50;;;;;;;16.45;4.78;;;;;;;1.65;83.07;99124.38;5057522;28;20059;-78
2022/01/10 01:28:16;;;;;;;12.50;4.63;;;;;;;1.64;82.34;99135.66;5055627;28;20052;-78
2022/01/10 01:30:42;;;;;;;10.43;4.35;;;;;;;1.62;82.70;99145.25;5055798;28;20402;-77
2022/01/10 01:33:08;;;;;;;15.35;5.03;;;;;;;1.58;82.52;99143.63;5055407;28;20045;-79
2022/01/10 01:35:35;;;;;;;9.23;4.55;;;;;;;1.58;83.07;99152.25;5041399;28;20060;-78
2022/01/10 01:38:01;;;;;;;11.40;4.57;;;;;;;1.59;83.11;99161.75;5042291;28;20448;-78
2022/01/10 01:40:32;;;;;;;15.75;6.95;;;;;;;1.55;82.77;99161.84;5053659;28;20035;-78
2022/01/10 01:42:59;;;;;;;12.95;5.95;;;;;;;1.54;83.16;99165.34;5055576;28;20055;-79
2022/01/10 01:45:43;;;;;;;28.45;6.35;;;;;;;1.53;83.20;99171.41;5045094;28;20055;-78
2022/01/10 01:48:10;;;;;;;20.08;7.00;;;;;;;1.52;83.01;99177.50;5062650;28;20085;-78
2022/01/10 01:50:36;;;;;;;16.63;5.78;;;;;;;1.49;83.15;99179.28;5062031;28;20419;-78
2022/01/10 01:53:02;;;;;;;19.88;6.57;;;;;;;1.46;83.25;99179.38;5059412;28;20041;-79
2022/01/10 01:55:27;;;;;;;13.00;5.43;;;;;;;1.44;83.27;99178.53;5057911;28;20036;-78
2022/01/10 01:57:53;;;;;;;14.45;6.60;;;;;;;1.40;83.47;99176.03;5054681;28;20025;-79
2022/01/10 02:00:22;;;;;;;20.42;7.05;;;;;;;1.38;83.75;99181.28;5056827;28;20517;-78
2022/01/10 02:02:47;;;;;;;17.33;6.07;;;;;;;1.40;83.28;99184.69;5018223;28;20033;-78
2022/01/10 02:05:12;;;;;;;9.75;5.07;;;;;;;1.42;83.72;99190.69;5055536;28;20600;-77
2022/01/10 02:07:38;;;;;;;13.73;6.18;;;;;;;1.43;83.43;99195.03;5055395;28;20120;-77
2022/01/10 02:10:05;;;;;;;15.20;6.07;;;;;;;1.46;83.58;99191.50;5058370;28;20247;-78
2022/01/10 02:12:30;;;;;;;10.48;5.28;;;;;;;1.46;83.63;99207.09;5056864;28;20129;-81
2022/01/10 02:14:55;;;;;;;24.27;8.55;;;;;;;1.45;83.33;99206.25;5059087;28;20049;-80
2022/01/10 02:17:24;;;;;;;11.82;6.50;;;;;;;1.44;83.00;99217.50;5057256;28;20032;-78
2022/01/10 02:19:57;;;;;;;14.25;7.10;;;;;;;1.45;83.03;99214.03;5057912;28;20033;-78
2022/01/10 02:22:23;;;;;;;14.60;5.68;;;;;;;1.43;82.70;99215.81;5055585;28;20037;-78
2022/01/10 02:24:48;;;;;;;21.60;6.00;;;;;;;1.45;82.55;99233.94;5057161;28;20044;-79
2022/01/10 02:27:14;;;;;;;11.05;5.72;;;;;;;1.38;82.49;99221.97;5058839;28;20037;-79
2022/01/10 02:29:39;;;;;;;12.95;5.97;;;;;;;1.37;83.10;99226.31;5062512;28;20036;-82
2022/01/10 02:32:05;;;;;;;13.35;7.00;;;;;;;1.37;82.94;99223.69;5032692;28;20033;-79
2022/01/10 02:34:30;;;;;;;12.80;5.68;;;;;;;1.34;82.65;99228.97;5059669;28;20095;-80
2022/01/10 02:36:58;;;;;;;12.25;5.18;;;;;;;1.32;82.50;99233.34;5063501;28;20101;-84
2022/01/10 02:39:24;;;;;;;8.95;4.65;;;;;;;1.31;82.96;99229.03;5061212;28;20467;-82
2022/01/10 02:41:49;;;;;;;15.07;5.95;;;;;;;1.26;83.19;99234.31;5058931;28;20052;-80
2022/01/10 02:44:16;;;;;;;20.45;7.40;;;;;;;1.20;82.42;99238.78;5057819;28;20033;-78
2022/01/10 02:46:43;;;;;;;13.65;6.13;;;;;;;1.20;83.27;99236.19;5060038;28;20533;-80
2022/01/10 02:49:10;;;;;;;16.02;7.18;;;;;;;1.10;83.30;99235.50;5058091;28;20033;-79
2022/01/10 02:51:36;;;;;;;13.43;4.82;;;;;;;1.12;83.56;99251.06;5056445;28;20694;-79
2022/01/10 02:54:02;;;;;;;14.45;6.75;;;;;;;1.14;83.21;99257.09;5054869;28;20060;-78
2022/01/10 02:56:27;;;;;;;16.77;5.38;;;;;;;1.12;83.31;99264.88;5059059;28;20489;-79
2022/01/10 02:58:52;;;;;;;12.30;4.97;;;;;;;1.13;82.89;99260.53;5059873;28;20052;-79
2022/01/10 03:01:18;;;;;;;10.85;5.30;;;;;;;1.10;83.09;99266.66;5044858;28;20059;-78
2022/01/10 03:03:43;;;;;;;18.58;5.97;;;;;;;1.09;82.60;99277.94;5034417;28;20040;-79
2022/01/10 03:06:08;;;;;;;8.45;5.72;;;;;;;1.07;82.36;99277.94;5072577;28;20060;-79
2022/01/10 03:08:34;;;;;;;7.18;4.38;;;;;;;1.06;82.41;99288.38;5029045;28;20428;-80
2022/01/10 03:10:59;;;;;;;12.18;6.05;;;;;;;1.05;82.38;99291.84;5061038;28;20025;-79
2022/01/10 03:13:56;;;;;;;10.05;5.07;;;;;;;1.03;82.60;99291.00;5061815;28;20052;-78
2022/01/10 03:16:22;;;;;;;11.18;6.57;;;;;;;0.99;82.24;99299.75;5049574;28;20042;-78
2022/01/10 03:18:47;;;;;;;7.45;5.28;;;;;;;0.93;82.79;99305.03;5054777;28;20120;-78
2022/01/10 03:21:12;;;;;;;11.27;5.00;;;;;;;0.92;83.10;99311.97;5054168;28;20103;-79
2022/01/10 03:23:38;;;;;;;7.57;5.18;;;;;;;0.93;82.33;99303.31;5049502;28;20037;-78
2022/01/10 03:26:03;;;;;;;17.52;6.97;;;;;;;0.81;82.25;99312.19;5034844;28;20040;-81
2022/01/10 03:28:29;;;;;;;9.27;5.25;;;;;;;0.79;83.07;99313.09;5060748;28;20041;-79
2022/01/10 03:30:54;;;;;;;16.63;5.35;;;;;;;0.80;83.23;99319.97;5046233;28;20037;-78
2022/01/10 03:33:19;;;;;;;15.00;5.68;;;;;;;0.80;82.78;99325.16;5038714;28;20049;-78
2022/01/10 03:35:45;;;;;;;16.95;8.57;;;;;;;0.77;82.53;99330.41;5049915;28;20045;-78
2022/01/10 03:38:10;;;;;;;20.25;7.72;;;;;;;0.77;82.79;99331.28;5028695;28;20305;-78
2022/01/10 03:40:36;;;;;;;11.25;5.25;;;;;;;0.78;82.69;99332.97;5030235;28;20041;-77
2022/01/10 03:43:03;;;;;;;9.05;5.18;;;;;;;0.77;83.11;99335.59;5048570;28;20033;-78
2022/01/10 03:45:28;;;;;;;11.80;5.25;;;;;;;0.79;83.15;99341.63;5062103;28;20038;-80
2022/01/10 03:47:54;;;;;;;24.70;8.82;;;;;;;0.71;81.86;99341.72;5043342;28;20067;-78
2022/01/10 03:50:23;;;;;;;16.25;7.00;;;;;;;0.70;82.98;99352.16;5009425;28;20033;-77
2022/01/10 03:52:48;;;;;;;17.05;6.53;;;;;;;0.69;83.43;99359.09;5026378;28;20075;-78
2022/01/10 03:55:14;;;;;;;12.15;5.90;;;;;;;0.72;83.35;99359.03;5060170;28;20041;-77
2022/01/10 03:57:39;;;;;;;16.85;6.75;;;;;;;0.73;83.90;99365.91;5042069;28;20029;-77
2022/01/10 04:00:07;;;;;;;16.48;7.35;;;;;;;0.76;83.40;99360.66;5045105;28;20128;-79
2022/01/10 04:02:33;;;;;;;14.75;7.22;;;;;;;0.77;83.50;99370.19;5051187;28;20033;-79
2022/01/10 04:04:59;;;;;;;11.90;6.85;;;;;;;0.78;83.71;99377.06;5067807;28;20097;-79
2022/01/10 04:07:24;;;;;;;15.23;6.82;;;;;;;0.81;83.16;99376.16;5066448;28;20102;-79
2022/01/10 04:09:49;;;;;;;11.73;6.45;;;;;;;0.83;83.46;99384.78;5065920;28;20045;-80
2022/01/10 04:12:15;;;;;;;12.63;6.65;;;;;;;0.85;83.92;99380.44;5068062;28;20068;-80
2022/01/10 04:14:40;;;;;;;9.90;5.88;;;;;;;0.89;83.71;99392.50;5068290;28;20040;-83
2022/01/10 04:17:06;;;;;;;22.73;7.15;;;;;;;0.93;83.23;99396.72;5066798;28;20036;-80
2022/01/10 04:19:31;;;;;;;12.02;7.53;;;;;;;0.98;83.77;99407.88;5065256;28;20120;-80
2022/01/10 04:21:56;;;;;;;15.52;6.88;;;;;;;1.01;83.82;99415.66;5064255;28;20033;-80
2022/01/10 04:24:21;;;;;;;19.30;7.40;;;;;;;1.05;82.90;99419.88;5064437;28;20033;-79
2022/01/10 04:26:47;;;;;;;19.42;7.82;;;;;;;1.09;83.39;99422.44;5062896;28;20101;-80
2022/01/10 04:29:12;;;;;;;14.00;6.72;;;;;;;1.13;83.10;99427.53;5078475;28;20044;-84
2022/01/10 04:31:38;;;;;;;14.60;7.15;;;;;;;1.18;83.38;99433.53;5055752;28;20032;-80
2022/01/10 04:34:03;;;;;;;13.30;6.75;;;;;;;1.26;82.91;99438.59;5057135;28;20115;-80
2022/01/10 04:36:29;;;;;;;14.73;7.13;;;;;;;1.33;83.22;99437.63;5073759;28;20041;-79
2022/01/10 04:38:54;;;;;;;16.33;6.15;;;;;;;1.40;82.86;99444.38;5071983;28;20031;-80
2022/01/10 04:41:19;;;;;;;23.17;8.68;;;;;;;1.42;82.44;99447.81;5051195;28;20040;-80
2022/01/10 04:43:45;;;;;;;19.25;7.85;;;;;;;1.43;82.21;99454.75;5054200;28;20040;-80
2022/01/10 04:46:10;;;;;;;17.70;8.05;;;;;;;1.48;82.59;99465.06;5055107;28;20040;-79
2022/01/10 04:48:36;;;;;;;14.90;6.50;;;;;;;1.53;82.53;99454.56;5058394;28;20028;-81
2022/01/10 04:51:12;;;;;;;17.80;7.80;;;;;;;1.57;82.18;99462.28;5057317;28;20106;-81
2022/01/10 04:53:41;;;;;;;;;;;;;;;1.60;82.34;99454.44;5060847;28;20145;-80
2022/01/10 04:56:06;;;;;;;14.90;6.68;;;;;;;1.59;82.02;99465.72;5057233;28;20335;-80
2022/01/10 04:58:34;;;;;;;11.15;6.80;;;;;;;1.60;82.24;99474.34;5057748;28;20060;-80
2022/01/10 05:00:59;;;;;;;14.35;6.65;;;;;;;1.60;82.54;99476.94;5053717;28;20033;-78
2022/01/10 05:03:25;;;;;;;16.48;6.32;;;;;;;1.59;81.89;99480.44;5071560;28;20052;-80
2022/01/10 05:05:53;;;;;;;14.40;6.75;;;;;;;1.55;82.39;99481.38;5080026;28;20067;-82
2022/01/10 05:08:20;;;;;;;22.73;9.15;;;;;;;1.52;82.20;99489.22;5059638;28;20036;-79
2022/01/10 05:10:45;;;;;;;19.02;9.40;;;;;;;1.45;82.67;99483.28;5051233;28;20041;-78
2022/01/10 05:13:10;;;;;;;20.13;9.15;;;;;;;1.44;82.50;99495.41;5055387;28;20025;-81
2022/01/10 05:15:36;;;;;;;21.48;9.00;;;;;;;1.41;82.57;99503.25;5076332;28;20116;-81
2022/01/10 05:18:01;;;;;;;17.05;8.32;;;;;;;1.34;82.43;99504.25;5044965;28;20024;-80
2022/01/10 05:20:27;;;;;;;17.33;7.30;;;;;;;1.31;82.27;99511.25;5065303;28;20033;-80
2022/01/10 05:22:52;;;;;;;28.60;9.75;;;;;;;1.27;82.54;99515.59;5060350;28;20090;-79
2022/01/10 05:25:18;;;;;;;22.00;9.80;;;;;;;1.23;82.82;99527.78;5067325;28;20037;-79
2022/01/10 05:27:43;;;;;;;16.20;7.60;;;;;;;1.23;82.98;99530.38;5048840;28;20041;-79
2022/01/10 05:30:09;;;;;;;21.60;10.02;;;;;;;1.21;82.40;99531.28;5061930;28;20037;-80
2022/01/10 05:32:35;;;;;;;25.63;9.60;;;;;;;1.14;82.58;99547.84;5049143;28;20048;-80
2022/01/10 05:35:00;;;;;;;19.65;8.95;;;;;;;1.11;82.90;99550.47;5060746;28;20044;-79
2022/01/10 05:37:26;;;;;;;16.92;7.32;;;;;;;1.12;82.70;99554.78;5059712;28;20048;-80
2022/01/10 05:39:51;;;;;;;14.50;7.05;;;;;;;1.09;82.72;99557.44;5063236;28;20035;-80
2022/01/10 05:42:19;;;;;;;20.58;9.25;;;;;;;1.07;82.85;99571.28;5062379;28;20041;-79
2022/01/10 05:44:44;;;;;;;16.60;8.68;;;;;;;1.02;82.83;99561.84;5060919;28;20044;-80
2022/01/10 05:47:10;;;;;;;17.23;6.80;;;;;;;1.03;83.47;99571.34;5061766;28;20068;-80
2022/01/10 05:49:37;;;;;;;14.07;6.82;;;;;;;1.02;82.89;99578.28;5063112;28;20040;-82
2022/01/10 05:52:03;;;;;;;16.77;6.97;;;;;;;1.04;82.60;99581.72;5063730;28;20048;-81
2022/01/10 05:54:28;;;;;;;18.00;7.75;;;;;;;0.99;82.68;99587.84;5063543;28;20045;-82
2022/01/10 05:56:54;;;;;;;18.67;8.85;;;;;;;0.92;83.23;99592.25;5052148;28;20037;-81
2022/01/10 05:59:20;;;;;;;28.08;9.52;;;;;;;0.84;83.27;99587.19;5034351;28;20116;-81
2022/01/10 06:01:46;;;;;;;18.08;9.70;;;;;;;0.80;83.58;99606.25;5030650;28;20099;-78
2022/01/10 06:04:11;;;;;;;21.52;8.95;;;;;;;0.72;83.73;99607.22;5031759;28;20037;-80
2022/01/10 06:06:37;;;;;;;14.27;7.45;;;;;;;0.64;83.59;99608.19;5031346;28;20048;-78
2022/01/10 06:09:03;;;;;;;20.55;9.55;;;;;;;0.58;84.29;99608.25;5032976;28;20030;-80
2022/01/10 06:11:28;;;;;;;23.92;9.23;;;;;;;0.56;83.73;99610.00;5031670;28;20045;-79
2022/01/10 06:13:54;;;;;;;23.20;9.60;;;;;;;0.50;84.41;99635.16;5034374;28;20037;-82
2022/01/10 06:16:19;;;;;;;14.07;9.25;;;;;;;0.40;83.91;99629.19;5015799;28;20037;-79
2022/01/10 06:18:44;;;;;;;18.70;10.00;;;;;;;0.43;83.82;99631.75;5032138;28;20538;-78
2022/01/10 06:21:10;;;;;;;23.80;9.93;;;;;;;0.42;84.21;99630.06;5031204;28;20379;-77
2022/01/10 06:23:35;;;;;;;15.43;9.48;;;;;;;0.36;84.38;99635.28;5033096;28;20099;-78
2022/01/10 06:26:01;;;;;;;17.13;7.70;;;;;;;0.33;84.35;99627.53;5033686;28;20068;-82
2022/01/10 06:28:26;;;;;;;23.48;9.32;;;;;;;0.33;84.18;99637.91;5035761;28;20060;-79
2022/01/10 06:30:51;;;;;;;14.50;7.43;;;;;;;0.24;84.14;99648.38;5047601;28;20122;-79
2022/01/10 06:33:17;;;;;;;20.08;8.77;;;;;;;0.13;84.10;99651.94;5065140;28;20037;-83
2022/01/10 06:35:42;;;;;;;14.90;8.45;;;;;;;0.08;84.12;99658.88;5064001;28;20027;-81
2022/01/10 06:38:07;;;;;;;21.00;8.48;;;;;;;0.11;84.28;99652.81;5065464;28;20060;-79
2022/01/10 06:40:33;;;;;;;14.02;6.70;;;;;;;0.09;83.91;99651.97;5055255;28;20029;-82
2022/01/10 06:42:58;;;;;;;13.73;6.28;;;;;;;0.05;84.36;99653.75;5055148;28;20029;-79
2022/01/10 06:45:24;;;;;;;15.57;8.75;;;;;;;0.05;84.40;99658.03;5030386;28;20407;-79
2022/01/10 06:47:49;;;;;;;12.15;5.53;;;;;;;0.04;83.75;99667.56;5051642;28;20106;-79
2022/01/10 06:50:15;;;;;;;10.73;6.68;;;;;;;0.04;84.03;99677.91;5044752;28;20033;-77
2022/01/10 06:52:41;;;;;;;14.00;5.85;;;;;;;0.02;83.82;99674.47;5041155;28;20036;-77
2022/01/10 06:55:07;;;;;;;13.48;6.07;;;;;;;0.04;83.92;99685.69;5037486;28;20123;-70
2022/01/10 06:57:32;;;;;;;11.48;5.75;;;;;;;0.03;83.98;99683.97;5030206;28;20036;-72
2022/01/10 06:59:58;;;;;;;14.77;6.93;;;;;;;0.03;84.00;99691.75;5028817;28;20033;-70
2022/01/10 07:02:23;;;;;;;20.10;7.32;;;;;;;0.03;83.58;99707.31;5029776;28;20383;-71
2022/01/10 07:04:49;;;;;;;8.13;5.20;;;;;;;0.03;83.80;99707.31;5028324;28;20034;-72
2022/01/10 07:07:14;;;;;;;16.70;6.50;;;;;;;0.02;83.87;99717.69;5028764;28;20399;-71
2022/01/10 07:09:39;;;;;;;16.05;6.47;;;;;;;0.01;83.62;99718.56;5030854;28;20470;-72
2022/01/10 07:12:05;;;;;;;19.23;7.30;;;;;;;-0.03;84.09;99720.28;5030892;28;20040;-71
2022/01/10 07:14:33;;;;;;;18.08;7.88;;;;;;;-0.04;84.36;99732.41;5033049;28;20052;-70
2022/01/10 07:16:58;;;;;;;13.38;7.18;;;;;;;0.00;84.17;99741.03;5033776;28;20041;-72
2022/01/10 07:19:24;;;;;;;20.98;6.63;;;;;;;0.01;83.68;99742.75;5036083;28;20042;-71
2022/01/10 07:21:50;;;;;;;10.98;7.65;;;;;;;-0.01;84.37;99758.28;5037312;28;20581;-70
2022/01/10 07:24:16;;;;;;;8.80;5.63;;;;;;;-0.03;84.13;99759.16;5036355;28;20056;-73
2022/01/10 07:26:41;;;;;;;16.60;7.95;;;;;;;-0.04;84.14;99767.81;5040863;28;20075;-79
2022/01/10 07:29:08;;;;;;;15.65;6.32;;;;;;;-0.08;83.91;99779.06;5064888;28;20494;-78
2022/01/10 07:31:35;;;;;;;18.77;7.80;;;;;;;-0.12;84.51;99782.56;5064123;28;20033;-78
2022/01/10 07:34:01;;;;;;;10.25;6.22;;;;;;;-0.11;84.48;99787.72;5049061;28;20044;-78
2022/01/10 07:36:26;;;;;;;16.20;7.07;;;;;;;-0.06;84.80;99791.16;5038015;28;20037;-78
2022/01/10 07:38:52;;;;;;;10.57;6.75;;;;;;;-0.01;84.46;99794.56;5030516;28;20095;-78
2022/01/10 07:41:17;;;;;;;22.52;8.00;;;;;;;0.06;84.27;99810.94;5011800;28;20111;-78
2022/01/10 07:43:43;;;;;;;15.00;7.28;;;;;;;0.11;84.61;99804.00;5035951;28;20040;-78
2022/01/10 07:46:08;;;;;;;11.23;7.32;;;;;;;0.18;84.05;99815.19;5051741;28;20755;-78
2022/01/10 07:48:37;;;;;;;13.18;6.53;;;;;;;0.22;84.47;99822.06;5047761;28;20028;-78
2022/01/10 07:51:03;;;;;;;14.90;6.25;;;;;;;0.25;83.69;99828.97;5046568;28;20036;-78
2022/01/10 07:53:29;;;;;;;9.85;5.88;;;;;;;0.30;84.39;99843.63;5044933;28;20566;-77
2022/01/10 07:55:55;;;;;;;11.88;5.75;;;;;;;0.41;84.20;99843.56;5046642;28;20044;-80
2022/01/10 07:58:20;;;;;;;9.32;5.93;;;;;;;0.50;83.64;99840.03;5055686;28;20175;-80
2022/01/10 08:00:45;;;;;;;12.63;7.10;;;;;;;0.60;83.05;99850.31;5044945;28;20688;-78
2022/01/10 08:03:11;;;;;;;15.93;6.85;;;;;;;0.70;83.48;99847.66;5022754;28;20037;-78
2022/01/10 08:05:36;;;;;;;16.40;6.68;;;;;;;0.70;82.70;99848.53;5061966;28;20045;-78
2022/01/10 08:08:02;;;;;;;15.88;8.32;;;;;;;0.73;82.35;99858.00;5045436;28;21017;-77
2022/01/10 08:10:27;;;;;;;8.73;5.80;;;;;;;0.83;83.13;99854.47;5053405;28;20045;-78
2022/01/10 08:12:53;;;;;;;9.63;6.97;;;;;;;0.93;82.89;99852.66;5046217;28;20044;-76
2022/01/10 08:15:20;;;;;;;13.55;5.65;;;;;;;0.97;82.49;99862.16;5030438;28;20046;-78
2022/01/10 08:17:46;;;;;;;13.27;5.97;;;;;;;1.10;82.47;99870.66;5035316;28;20037;-78
2022/01/10 08:20:12;;;;;;;9.07;5.53;;;;;;;1.18;82.60;99869.75;5044337;28;20045;-79
2022/01/10 08:22:37;;;;;;;17.42;7.13;;;;;;;1.23;81.71;99869.66;5044278;28;20097;-78
2022/01/10 08:25:03;;;;;;;13.20;5.80;;;;;;;1.27;81.56;99869.63;5026488;28;20062;-77
2022/01/10 08:27:28;;;;;;;10.88;5.80;;;;;;;1.30;81.25;99868.72;5044740;28;20053;-78
2022/01/10 08:29:53;;;;;;;12.02;6.22;;;;;;;1.31;81.69;99880.84;5039091;28;20192;-78
2022/01/10 08:32:19;;;;;;;12.50;5.22;;;;;;;1.29;81.33;99874.81;5057701;28;20037;-78
2022/01/10 08:34:44;;;;;;;19.40;8.60;;;;;;;1.32;80.83;99886.91;5063370;28;20057;-79
2022/01/10 08:37:10;;;;;;;8.93;5.20;;;;;;;1.32;81.95;99889.50;5053142;28;20050;-78
2022/01/10 08:39:36;;;;;;;12.15;6.00;;;;;;;1.37;81.95;99885.97;5050607;28;20033;-79
2022/01/10 08:42:01;;;;;;;11.90;5.82;;;;;;;1.43;81.52;99903.25;5042431;28;20033;-79
2022/01/10 08:44:27;;;;;;;13.73;6.13;;;;;;;1.45;81.38;99910.16;5041879;28;20042;-78
2022/01/10 08:46:53;;;;;;;15.45;7.60;;;;;;;1.48;81.38;99919.66;5039796;28;20033;-78
2022/01/10 08:49:19;;;;;;;13.00;5.22;;;;;;;1.54;81.09;99918.72;5037728;28;20091;-77
2022/01/10 08:51:45;;;;;;;13.48;5.28;;;;;;;1.58;80.99;99910.03;5036233;28;20045;-78
2022/01/10 08:54:11;;;;;;;14.13;6.20;;;;;;;1.64;80.72;99912.53;5037892;28;20053;-80
2022/01/10 08:56:37;;;;;;;10.43;6.88;;;;;;;1.70;80.89;99917.69;5038467;28;20101;-79
2022/01/10 08:59:06;;;;;;;8.52;5.13;;;;;;;1.80;80.96;99928.84;5071868;28;20068;-78
2022/01/10 09:01:32;;;;;;;41.42;20.25;;;;;;;1.81;80.51;99936.59;5057337;28;20045;-78
2022/01/10 09:03:59;;;;;;;51.22;26.13;;;;;;;1.88;80.09;99938.25;5051825;28;20043;-78
2022/01/10 09:06:24;;;;;;;19.58;9.02;;;;;;;1.96;79.98;99950.31;5063985;28;20518;-78
2022/01/10 09:08:51;;;;;;;11.98;6.15;;;;;;;2.00;79.89;99946.81;5044813;28;20033;-79
2022/01/10 09:11:17;;;;;;;14.68;6.65;;;;;;;2.03;79.71;99955.44;5045212;28;20056;-77
2022/01/10 09:13:43;;;;;;;9.60;5.70;;;;;;;2.10;79.76;99967.47;5040453;28;20065;-77
2022/01/10 09:16:09;;;;;;;10.13;4.90;;;;;;;2.12;79.64;99970.06;5036819;28;20541;-78
2022/01/10 09:18:35;;;;;;;12.88;6.32;;;;;;;2.18;79.68;99966.53;5053901;28;20099;-79
2022/01/10 09:21:00;;;;;;;10.02;5.45;;;;;;;2.25;79.58;99962.97;5035257;28;20042;-80
2022/01/10 09:23:26;;;;;;;15.85;6.32;;;;;;;2.32;79.60;99967.22;5034525;28;20041;-79
2022/01/10 09:25:51;;;;;;;9.75;5.72;;;;;;;2.39;79.33;99973.19;5036522;28;20064;-79
2022/01/10 09:28:18;;;;;;;15.73;5.38;;;;;;;2.53;79.04;99976.47;5032827;28;20033;-78
2022/01/10 09:30:44;;;;;;;9.23;4.88;;;;;;;3.52;77.44;99981.91;5016894;28;20484;-78
2022/01/10 09:33:09;;;;;;;20.35;9.05;;;;;;;4.77;73.31;99982.91;5033970;28;20037;-78
2022/01/10 09:35:36;;;;;;;13.20;5.95;;;;;;;5.86;69.21;99988.09;5016019;28;20045;-78
2022/01/10 09:38:01;;;;;;;10.63;4.85;;;;;;;6.80;66.25;99983.69;5015142;28;20100;-78
2022/01/10 09:40:27;;;;;;;11.98;5.55;;;;;;;7.40;63.40;99989.66;5032322;28;20037;-77
2022/01/10 09:42:52;;;;;;;11.40;5.70;;;;;;;8.13;59.98;99993.28;5048061;28;20098;-77
2022/01/10 09:45:18;;;;;;;11.07;5.45;;;;;;;8.96;58.99;99991.06;5051503;28;20033;-79
2022/01/10 09:47:43;;;;;;;9.45;5.00;;;;;;;9.65;58.67;99990.88;5051460;28;20033;-78
2022/01/10 09:50:10;;;;;;;15.38;5.25;;;;;;;10.24;53.81;99991.00;5052886;28;20025;-78
2022/01/10 09:52:38;;;;;;;10.48;4.95;;;;;;;10.77;52.05;99990.34;5054287;28;20057;-78
2022/01/10 09:55:05;;;;;;;7.43;5.22;;;;;;;11.16;50.65;99994.66;5053418;28;20049;-77
2022/01/10 09:57:30;;;;;;;8.93;5.30;;;;;;;11.38;51.37;99987.41;5052836;28;20025;-78
2022/01/10 09:59:56;;;;;;;11.02;5.78;;;;;;;11.75;49.32;99985.56;5045114;28;20033;-77
2022/01/10 10:02:23;;;;;;;10.98;4.70;;;;;;;12.11;48.55;99994.34;5031829;28;20068;-77
2022/01/10 10:04:48;;;;;;;10.15;4.47;;;;;;;12.37;48.71;99993.81;5038355;28;20025;-78
2022/01/10 10:07:15;;;;;;;8.40;4.68;;;;;;;12.65;47.03;100000.25;5039161;28;20043;-78
2022/01/10 10:09:40;;;;;;;11.52;4.60;;;;;;;12.90;47.39;99994.50;5035105;28;20033;-78
2022/01/10 10:12:07;;;;;;;12.85;4.97;;;;;;;13.09;45.54;99997.84;5033144;28;20041;-78
2022/01/10 10:14:32;;;;;;;7.55;3.97;;;;;;;13.40;44.24;100009.34;5034976;28;20434;-78
2022/01/10 10:17:06;;;;;;;11.10;5.05;;;;;;;13.48;43.84;100012.41;5034220;28;20040;-77
2022/01/10 10:19:32;;;;;;;11.50;4.47;;;;;;;13.67;43.26;100021.94;5051713;28;20525;-77
2022/01/10 10:21:59;;;;;;;10.45;3.47;;;;;;;13.93;44.84;100015.97;5049366;28;20056;-77
2022/01/10 10:24:25;;;;;;;8.20;3.88;;;;;;;13.92;43.07;100019.53;5062591;28;20044;-76
2022/01/10 10:26:52;;;;;;;12.30;4.18;;;;;;;13.46;44.18;100024.91;5058016;28;20033;-78
2022/01/10 10:29:19;;;;;;;8.23;4.05;;;;;;;12.87;45.48;100029.06;5043587;28;20052;-77
2022/01/10 10:31:46;;;;;;;10.45;6.28;;;;;;;12.20;46.05;100025.59;5046431;28;20041;-78
2022/01/10 10:34:18;;;;;;;10.75;6.70;;;;;;;11.64;49.78;100024.88;5050246;28;20041;-78
2022/01/10 10:36:43;;;;;;;12.00;4.40;;;;;;;11.09;48.85;100022.28;5055852;28;20039;-78
2022/01/10 10:39:10;;;;;;;10.57;4.80;;;;;;;10.53;49.96;100019.59;5033037;28;20102;-79
2022/01/10 10:41:37;;;;;;;11.85;4.95;;;;;;;10.11;51.81;100027.56;5031625;28;20033;-79
2022/01/10 10:44:03;;;;;;;12.75;5.88;;;;;;;9.71;53.17;100036.31;5031012;28;20045;-79
2022/01/10 10:46:29;;;;;;;9.05;4.30;;;;;;;9.31;52.84;100035.31;5032401;28;20037;-77
2022/01/10 10:49:00;;;;;;;9.90;4.07;;;;;;;8.84;53.41;100038.03;5050653;28;20359;-79
2022/01/10 10:51:28;;;;;;;11.00;4.13;;;;;;;8.39;53.86;100052.75;5063185;28;20041;-77
2022/01/10 10:54:05;;;;;;;14.13;4.22;;;;;;;8.23;55.30;100046.34;5061083;28;20066;-77
2022/01/10 10:56:32;;;;;;;25.65;6.40;;;;;;;8.19;56.21;100056.09;5057976;28;20049;-78
2022/01/10 10:58:59;;;;;;;11.98;4.60;;;;;;;7.92;55.07;100058.75;5047672;28;20041;-78
2022/01/10 11:01:24;;;;;;;11.18;5.03;;;;;;;7.71;55.77;100059.50;5027481;28;20037;-78
2022/01/10 11:03:50;;;;;;;14.68;4.60;;;;;;;7.53;57.05;100060.94;5040981;28;20379;-78
2022/01/10 11:06:16;;;;;;;11.15;4.07;;;;;;;7.42;57.77;100060.44;5042694;28;20674;-78
2022/01/10 11:08:43;;;;;;;17.40;3.28;;;;;;;7.24;55.36;100054.00;5044462;28;20055;-77
2022/01/10 11:11:14;;;;;;;23.30;5.00;;;;;;;7.11;54.61;100061.38;5048623;28;20836;-77
2022/01/10 11:13:41;;;;;;;12.88;2.85;;;;;;;7.00;55.47;100063.47;5048186;28;20037;-77
2022/01/10 11:16:08;;;;;;;10.52;3.65;;;;;;;6.97;56.38;100076.69;5054898;28;20042;-79
2022/01/10 11:18:34;;;;;;;9.40;2.78;;;;;;;6.94;54.73;100080.25;5054852;28;20037;-77
2022/01/10 11:21:00;;;;;;;11.02;2.75;;;;;;;6.84;53.97;100087.53;5057633;28;20043;-78
2022/01/10 11:23:27;;;;;;;7.93;2.88;;;;;;;6.79;54.54;100094.66;5062752;28;20415;-78
2022/01/10 11:25:52;;;;;;;9.90;3.72;;;;;;;6.82;54.68;100091.09;5046455;28;20040;-80
2022/01/10 11:28:23;;;;;;;6.75;2.90;;;;;;;6.82;55.80;100096.34;5048201;28;20034;-78
2022/01/10 11:30:53;;;;;;;8.40;3.00;;;;;;;6.83;54.62;100091.03;5046675;28;20120;-79
2022/01/10 11:33:22;;;;;;;9.63;3.58;;;;;;;6.74;55.15;100093.06;5046961;28;20040;-78
2022/01/10 11:35:54;;;;;;;11.07;3.75;;;;;;;6.74;55.87;100096.53;5045527;28;20112;-78